sensor_id;sensor_type;location;lat;lon;timestamp;temperature;humidity
4795;DHT22;2411;47.060;15.064;2023-12-07T00:00:37;-1.10;99.90
4795;DHT22;2411;47.060;15.064;2023-12-07T00:03:04;-1.00;99.90
4795;DHT22;2411;47.060;15.064;2023-12-07T00:05:34;-0.90;99.90
4795;DHT22;2411;47.060;15.064;2023-12-07T00:08:01;-0.80;99.90
4795;DHT22;2411;47.060;15.064;2023-12-07T00:10:29;-0.80;99.90
4795;DHT22;2411;47.060;15.064;2023-12-07T00:12:56;-0.80;99.90
4795;DHT22;2411;47.060;15.064;2023-12-07T00:15:23;-0.70;99.90
4795;DHT22;2411;47.060;15.064;2023-12-07T00:17:51;-0.50;99.90
4795;DHT22;2411;47.060;15.064;2023-12-07T00:20:18;-0.60;99.90
4795;DHT22;2411;47.060;15.064;2023-12-07T00:22:45;-0.60;99.90
4795;DHT22;2411;47.060;15.064;2023-12-07T00:25:13;-0.60;99.90
4795;DHT22;2411;47.060;15.064;2023-12-07T00:27:40;-0.50;99.90
4795;DHT22;2411;47.060;15.064;2023-12-07T00:30:08;-0.60;99.90
4795;DHT22;2411;47.060;15.064;2023-12-07T00:32:36;-0.70;91.40
4795;DHT22;2411;47.060;15.064;2023-12-07T00:35:03;-0.60;72.10
4795;DHT22;2411;47.060;15.064;2023-12-07T00:37:31;-0.70;63.80
4795;DHT22;2411;47.060;15.064;2023-12-07T00:39:58;-0.70;84.90
4795;DHT22;2411;47.060;15.064;2023-12-07T00:42:25;-0.60;99.40
4795;DHT22;2411;47.060;15.064;2023-12-07T00:44:54;-0.60;99.90
4795;DHT22;2411;47.060;15.064;2023-12-07T00:47:22;-0.60;75.10
4795;DHT22;2411;47.060;15.064;2023-12-07T00:49:49;-0.60;75.40
4795;DHT22;2411;47.060;15.064;2023-12-07T00:52:16;-0.60;87.00
4795;DHT22;2411;47.060;15.064;2023-12-07T00:54:44;-0.70;99.90
4795;DHT22;2411;47.060;15.064;2023-12-07T00:57:11;-0.60;99.90
4795;DHT22;2411;47.060;15.064;2023-12-07T00:59:38;-0.50;99.90
4795;DHT22;2411;47.060;15.064;2023-12-07T01:02:06;-0.40;99.90
4795;DHT22;2411;47.060;15.064;2023-12-07T01:04:34;-0.30;99.90
4795;DHT22;2411;47.060;15.064;2023-12-07T01:07:01;-0.20;99.90
4795;DHT22;2411;47.060;15.064;2023-12-07T01:09:29;-0.30;54.00
4795;DHT22;2411;47.060;15.064;2023-12-07T01:11:56;-0.40;28.90
4795;DHT22;2411;47.060;15.064;2023-12-07T01:14:25;-0.50;48.70
4795;DHT22;2411;47.060;15.064;2023-12-07T01:16:52;-0.70;52.20
4795;DHT22;2411;47.060;15.064;2023-12-07T01:19:19;-0.80;46.00
4795;DHT22;2411;47.060;15.064;2023-12-07T01:21:47;-0.80;90.60
4795;DHT22;2411;47.060;15.064;2023-12-07T01:24:14;-0.70;99.90
4795;DHT22;2411;47.060;15.064;2023-12-07T01:26:43;-0.60;99.90
4795;DHT22;2411;47.060;15.064;2023-12-07T01:29:10;-0.60;99.90
4795;DHT22;2411;47.060;15.064;2023-12-07T01:31:38;-0.80;92.30
4795;DHT22;2411;47.060;15.064;2023-12-07T01:34:05;-0.90;82.10
4795;DHT22;2411;47.060;15.064;2023-12-07T01:36:33;-0.80;99.40
4795;DHT22;2411;47.060;15.064;2023-12-07T01:39:00;-0.60;99.90
4795;DHT22;2411;47.060;15.064;2023-12-07T01:41:27;-0.40;99.90
4795;DHT22;2411;47.060;15.064;2023-12-07T01:43:55;-0.40;99.90
4795;DHT22;2411;47.060;15.064;2023-12-07T01:46:22;-0.40;99.90
4795;DHT22;2411;47.060;15.064;2023-12-07T01:48:50;-0.50;99.90
4795;DHT22;2411;47.060;15.064;2023-12-07T01:51:18;-0.50;99.90
4795;DHT22;2411;47.060;15.064;2023-12-07T01:53:47;-0.50;99.90
4795;DHT22;2411;47.060;15.064;2023-12-07T01:56:15;-0.50;99.90
4795;DHT22;2411;47.060;15.064;2023-12-07T01:58:43;-0.30;99.90
4795;DHT22;2411;47.060;15.064;2023-12-07T02:01:11;-0.10;99.90
4795;DHT22;2411;47.060;15.064;2023-12-07T02:03:40;-0.20;51.10
4795;DHT22;2411;47.060;15.064;2023-12-07T02:06:08;-0.30;54.90
4795;DHT22;2411;47.060;15.064;2023-12-07T02:08:36;-0.50;26.20
4795;DHT22;2411;47.060;15.064;2023-12-07T02:11:09;-0.80;11.70
4795;DHT22;2411;47.060;15.064;2023-12-07T02:13:37;-0.80;30.60
4795;DHT22;2411;47.060;15.064;2023-12-07T02:16:19;-0.70;99.30
4795;DHT22;2411;47.060;15.064;2023-12-07T02:18:51;-0.60;99.90
4795;DHT22;2411;47.060;15.064;2023-12-07T02:21:46;-0.60;99.90
4795;DHT22;2411;47.060;15.064;2023-12-07T02:24:20;-0.60;99.90
4795;DHT22;2411;47.060;15.064;2023-12-07T02:26:50;-0.80;87.80
4795;DHT22;2411;47.060;15.064;2023-12-07T02:29:17;-0.70;99.90
4795;DHT22;2411;47.060;15.064;2023-12-07T02:31:45;-0.70;99.90
4795;DHT22;2411;47.060;15.064;2023-12-07T02:34:12;-0.80;99.90
4795;DHT22;2411;47.060;15.064;2023-12-07T02:36:42;-0.70;99.90
4795;DHT22;2411;47.060;15.064;2023-12-07T02:39:10;-0.70;99.90
4795;DHT22;2411;47.060;15.064;2023-12-07T02:41:41;-0.80;84.50
4795;DHT22;2411;47.060;15.064;2023-12-07T02:44:10;-0.90;89.30
4795;DHT22;2411;47.060;15.064;2023-12-07T02:46:37;-0.80;99.90
4795;DHT22;2411;47.060;15.064;2023-12-07T02:49:04;-0.70;99.90
4795;DHT22;2411;47.060;15.064;2023-12-07T02:51:32;-0.70;99.90
4795;DHT22;2411;47.060;15.064;2023-12-07T02:53:59;-0.60;99.90
4795;DHT22;2411;47.060;15.064;2023-12-07T02:56:27;-0.50;99.90
4795;DHT22;2411;47.060;15.064;2023-12-07T02:58:54;-0.30;57.80
4795;DHT22;2411;47.060;15.064;2023-12-07T03:01:21;-0.20;8.50
4795;DHT22;2411;47.060;15.064;2023-12-07T03:03:49;0.00;1.00
4795;DHT22;2411;47.060;15.064;2023-12-07T03:06:16;-0.10;1.00
4795;DHT22;2411;47.060;15.064;2023-12-07T03:08:44;-0.20;1.00
4795;DHT22;2411;47.060;15.064;2023-12-07T03:11:11;-0.30;1.00
4795;DHT22;2411;47.060;15.064;2023-12-07T03:13:38;-0.30;1.00
4795;DHT22;2411;47.060;15.064;2023-12-07T03:16:09;-0.10;1.00
4795;DHT22;2411;47.060;15.064;2023-12-07T03:18:37;-0.20;1.00
4795;DHT22;2411;47.060;15.064;2023-12-07T03:21:05;-0.10;1.00
4795;DHT22;2411;47.060;15.064;2023-12-07T03:23:32;0.00;1.00
4795;DHT22;2411;47.060;15.064;2023-12-07T03:25:59;0.00;1.00
4795;DHT22;2411;47.060;15.064;2023-12-07T03:28:27;0.10;1.00
4795;DHT22;2411;47.060;15.064;2023-12-07T03:30:54;0.30;1.00
4795;DHT22;2411;47.060;15.064;2023-12-07T03:33:21;0.40;1.00
4795;DHT22;2411;47.060;15.064;2023-12-07T03:35:49;0.00;1.00
4795;DHT22;2411;47.060;15.064;2023-12-07T03:38:16;-0.10;1.00
4795;DHT22;2411;47.060;15.064;2023-12-07T03:40:44;-0.10;1.00
4795;DHT22;2411;47.060;15.064;2023-12-07T03:43:19;-0.10;1.00
4795;DHT22;2411;47.060;15.064;2023-12-07T03:45:46;-0.10;1.00
4795;DHT22;2411;47.060;15.064;2023-12-07T03:48:13;0.00;1.00
4795;DHT22;2411;47.060;15.064;2023-12-07T03:50:41;0.10;1.00
4795;DHT22;2411;47.060;15.064;2023-12-07T03:53:08;0.10;1.00
4795;DHT22;2411;47.060;15.064;2023-12-07T03:55:36;0.00;1.00
4795;DHT22;2411;47.060;15.064;2023-12-07T03:58:04;-0.30;1.00
4795;DHT22;2411;47.060;15.064;2023-12-07T04:00:32;-0.20;1.00
4795;DHT22;2411;47.060;15.064;2023-12-07T04:02:59;-0.30;1.00
4795;DHT22;2411;47.060;15.064;2023-12-07T04:05:27;-0.30;1.00
4795;DHT22;2411;47.060;15.064;2023-12-07T04:07:54;-0.20;1.00
4795;DHT22;2411;47.060;15.064;2023-12-07T04:10:22;-0.20;1.00
4795;DHT22;2411;47.060;15.064;2023-12-07T04:12:49;-0.20;1.00
4795;DHT22;2411;47.060;15.064;2023-12-07T04:15:17;-0.20;1.00
4795;DHT22;2411;47.060;15.064;2023-12-07T04:17:46;-0.40;1.00
4795;DHT22;2411;47.060;15.064;2023-12-07T04:20:13;-0.50;1.00
4795;DHT22;2411;47.060;15.064;2023-12-07T04:22:41;-0.50;1.00
4795;DHT22;2411;47.060;15.064;2023-12-07T04:25:09;-0.60;1.00
4795;DHT22;2411;47.060;15.064;2023-12-07T04:27:36;-0.60;1.00
4795;DHT22;2411;47.060;15.064;2023-12-07T04:30:04;-0.60;1.00
4795;DHT22;2411;47.060;15.064;2023-12-07T04:32:31;-0.70;1.00
4795;DHT22;2411;47.060;15.064;2023-12-07T04:34:59;-0.70;1.00
4795;DHT22;2411;47.060;15.064;2023-12-07T04:37:26;-0.90;1.00
4795;DHT22;2411;47.060;15.064;2023-12-07T04:39:53;-0.80;18.50
4795;DHT22;2411;47.060;15.064;2023-12-07T04:42:21;-0.60;12.30
4795;DHT22;2411;47.060;15.064;2023-12-07T04:44:48;-0.50;1.00
4795;DHT22;2411;47.060;15.064;2023-12-07T04:47:16;-0.50;1.00
4795;DHT22;2411;47.060;15.064;2023-12-07T04:49:43;-0.50;1.00
4795;DHT22;2411;47.060;15.064;2023-12-07T04:52:11;-0.60;1.00
4795;DHT22;2411;47.060;15.064;2023-12-07T04:54:38;-0.80;1.00
4795;DHT22;2411;47.060;15.064;2023-12-07T04:57:06;-0.80;1.00
4795;DHT22;2411;47.060;15.064;2023-12-07T04:59:35;-0.90;1.00
4795;DHT22;2411;47.060;15.064;2023-12-07T05:02:05;-0.80;1.00
4795;DHT22;2411;47.060;15.064;2023-12-07T05:04:33;-0.70;1.00
4795;DHT22;2411;47.060;15.064;2023-12-07T05:07:01;-0.80;1.00
4795;DHT22;2411;47.060;15.064;2023-12-07T05:09:31;-0.90;1.00
4795;DHT22;2411;47.060;15.064;2023-12-07T05:11:58;-0.90;1.00
4795;DHT22;2411;47.060;15.064;2023-12-07T05:14:25;-1.00;1.00
4795;DHT22;2411;47.060;15.064;2023-12-07T05:16:53;-0.80;1.00
4795;DHT22;2411;47.060;15.064;2023-12-07T05:19:23;-0.90;1.00
4795;DHT22;2411;47.060;15.064;2023-12-07T05:21:51;-0.80;1.00
4795;DHT22;2411;47.060;15.064;2023-12-07T05:24:19;-0.70;1.00
4795;DHT22;2411;47.060;15.064;2023-12-07T05:26:47;-0.60;1.00
4795;DHT22;2411;47.060;15.064;2023-12-07T05:29:15;-0.40;1.00
4795;DHT22;2411;47.060;15.064;2023-12-07T05:31:42;-0.50;1.00
4795;DHT22;2411;47.060;15.064;2023-12-07T05:34:09;-0.60;1.00
4795;DHT22;2411;47.060;15.064;2023-12-07T05:36:37;-0.50;1.00
4795;DHT22;2411;47.060;15.064;2023-12-07T05:39:04;-0.50;1.00
4795;DHT22;2411;47.060;15.064;2023-12-07T05:41:34;-0.60;1.00
4795;DHT22;2411;47.060;15.064;2023-12-07T05:44:01;-0.60;1.00
4795;DHT22;2411;47.060;15.064;2023-12-07T05:46:31;-0.40;1.00
4795;DHT22;2411;47.060;15.064;2023-12-07T05:48:59;-0.40;1.00
4795;DHT22;2411;47.060;15.064;2023-12-07T05:51:27;-0.30;1.00
4795;DHT22;2411;47.060;15.064;2023-12-07T05:53:54;-0.30;1.00
4795;DHT22;2411;47.060;15.064;2023-12-07T05:56:22;-0.30;1.00
4795;DHT22;2411;47.060;15.064;2023-12-07T05:58:49;-0.30;1.00
4795;DHT22;2411;47.060;15.064;2023-12-07T06:01:17;-0.20;1.00
4795;DHT22;2411;47.060;15.064;2023-12-07T06:03:46;-0.20;1.00
4795;DHT22;2411;47.060;15.064;2023-12-07T06:06:13;-0.30;1.00
4795;DHT22;2411;47.060;15.064;2023-12-07T06:08:41;-0.50;1.00
4795;DHT22;2411;47.060;15.064;2023-12-07T06:11:08;-0.60;1.00
4795;DHT22;2411;47.060;15.064;2023-12-07T06:13:37;-0.30;1.00
4795;DHT22;2411;47.060;15.064;2023-12-07T06:16:04;-0.60;1.00
4795;DHT22;2411;47.060;15.064;2023-12-07T06:18:32;-0.70;1.00
4795;DHT22;2411;47.060;15.064;2023-12-07T06:21:00;-0.70;1.00
4795;DHT22;2411;47.060;15.064;2023-12-07T06:23:27;-0.90;1.00
4795;DHT22;2411;47.060;15.064;2023-12-07T06:25:54;-1.00;1.00
4795;DHT22;2411;47.060;15.064;2023-12-07T06:28:21;-0.90;1.00
4795;DHT22;2411;47.060;15.064;2023-12-07T06:30:49;-0.90;1.00
4795;DHT22;2411;47.060;15.064;2023-12-07T06:33:16;-0.90;1.00
4795;DHT22;2411;47.060;15.064;2023-12-07T06:35:43;-0.90;1.00
4795;DHT22;2411;47.060;15.064;2023-12-07T06:38:11;-0.80;1.00
4795;DHT22;2411;47.060;15.064;2023-12-07T06:40:38;-0.90;1.00
4795;DHT22;2411;47.060;15.064;2023-12-07T06:43:05;-0.90;1.00
4795;DHT22;2411;47.060;15.064;2023-12-07T06:45:33;-0.90;1.00
4795;DHT22;2411;47.060;15.064;2023-12-07T06:48:01;-0.90;1.00
4795;DHT22;2411;47.060;15.064;2023-12-07T06:50:29;-0.90;1.00
4795;DHT22;2411;47.060;15.064;2023-12-07T06:52:56;-1.00;1.00
4795;DHT22;2411;47.060;15.064;2023-12-07T06:55:23;-1.00;1.00
4795;DHT22;2411;47.060;15.064;2023-12-07T06:57:51;-1.00;1.00
4795;DHT22;2411;47.060;15.064;2023-12-07T07:00:18;-1.00;1.00
4795;DHT22;2411;47.060;15.064;2023-12-07T07:02:47;-1.20;1.00
4795;DHT22;2411;47.060;15.064;2023-12-07T07:05:14;-1.20;1.00
4795;DHT22;2411;47.060;15.064;2023-12-07T07:07:42;-1.10;1.00
4795;DHT22;2411;47.060;15.064;2023-12-07T07:10:09;-1.20;1.00
4795;DHT22;2411;47.060;15.064;2023-12-07T07:12:37;-1.30;1.00
4795;DHT22;2411;47.060;15.064;2023-12-07T07:15:07;-1.30;1.00
4795;DHT22;2411;47.060;15.064;2023-12-07T07:17:35;-1.20;1.00
4795;DHT22;2411;47.060;15.064;2023-12-07T07:20:03;-1.20;1.00
4795;DHT22;2411;47.060;15.064;2023-12-07T07:22:30;-1.30;1.00
4795;DHT22;2411;47.060;15.064;2023-12-07T07:24:58;-1.30;1.00
4795;DHT22;2411;47.060;15.064;2023-12-07T07:27:25;-1.30;1.00
4795;DHT22;2411;47.060;15.064;2023-12-07T07:29:53;-1.10;1.00
4795;DHT22;2411;47.060;15.064;2023-12-07T07:32:20;-0.90;1.00
4795;DHT22;2411;47.060;15.064;2023-12-07T07:34:47;-0.80;1.00
4795;DHT22;2411;47.060;15.064;2023-12-07T07:37:15;-0.80;1.00
4795;DHT22;2411;47.060;15.064;2023-12-07T07:39:42;-0.80;1.00
4795;DHT22;2411;47.060;15.064;2023-12-07T07:42:09;-0.80;1.00
4795;DHT22;2411;47.060;15.064;2023-12-07T07:44:37;-0.80;1.00
4795;DHT22;2411;47.060;15.064;2023-12-07T07:47:04;-0.80;1.00
4795;DHT22;2411;47.060;15.064;2023-12-07T07:49:32;-0.80;1.00
4795;DHT22;2411;47.060;15.064;2023-12-07T07:51:59;-0.80;1.00
4795;DHT22;2411;47.060;15.064;2023-12-07T07:54:27;-0.70;1.00
4795;DHT22;2411;47.060;15.064;2023-12-07T07:56:54;-0.50;1.00
4795;DHT22;2411;47.060;15.064;2023-12-07T07:59:21;-0.40;1.00
4795;DHT22;2411;47.060;15.064;2023-12-07T08:01:51;-0.30;1.00
4795;DHT22;2411;47.060;15.064;2023-12-07T08:04:19;-0.30;1.00
4795;DHT22;2411;47.060;15.064;2023-12-07T08:06:46;-0.20;1.00
4795;DHT22;2411;47.060;15.064;2023-12-07T08:09:13;-0.10;1.00
4795;DHT22;2411;47.060;15.064;2023-12-07T08:11:41;-0.10;1.00
4795;DHT22;2411;47.060;15.064;2023-12-07T08:14:08;0.00;1.00
4795;DHT22;2411;47.060;15.064;2023-12-07T08:16:36;0.10;1.00
4795;DHT22;2411;47.060;15.064;2023-12-07T08:19:03;0.20;1.00
4795;DHT22;2411;47.060;15.064;2023-12-07T08:21:31;0.30;1.00
4795;DHT22;2411;47.060;15.064;2023-12-07T08:23:58;0.40;1.00
4795;DHT22;2411;47.060;15.064;2023-12-07T08:26:25;0.60;1.00
4795;DHT22;2411;47.060;15.064;2023-12-07T08:28:55;0.60;1.00
4795;DHT22;2411;47.060;15.064;2023-12-07T08:31:23;0.60;1.00
4795;DHT22;2411;47.060;15.064;2023-12-07T08:33:51;0.60;1.00
4795;DHT22;2411;47.060;15.064;2023-12-07T08:36:19;0.70;1.00
4795;DHT22;2411;47.060;15.064;2023-12-07T08:38:47;0.80;1.00
4795;DHT22;2411;47.060;15.064;2023-12-07T08:41:14;0.90;1.00
4795;DHT22;2411;47.060;15.064;2023-12-07T08:43:42;1.10;1.00
4795;DHT22;2411;47.060;15.064;2023-12-07T08:46:09;1.20;1.00
4795;DHT22;2411;47.060;15.064;2023-12-07T08:48:37;1.30;1.00
4795;DHT22;2411;47.060;15.064;2023-12-07T08:51:09;1.40;1.00
4795;DHT22;2411;47.060;15.064;2023-12-07T08:53:37;1.50;1.00
4795;DHT22;2411;47.060;15.064;2023-12-07T08:56:05;1.70;1.00
4795;DHT22;2411;47.060;15.064;2023-12-07T08:58:33;1.90;1.00
4795;DHT22;2411;47.060;15.064;2023-12-07T09:01:00;2.00;1.00
4795;DHT22;2411;47.060;15.064;2023-12-07T09:03:28;2.20;1.00
4795;DHT22;2411;47.060;15.064;2023-12-07T09:06:00;2.40;1.00
4795;DHT22;2411;47.060;15.064;2023-12-07T09:08:28;2.40;1.00
4795;DHT22;2411;47.060;15.064;2023-12-07T09:10:55;2.60;1.00
4795;DHT22;2411;47.060;15.064;2023-12-07T09:13:22;2.60;1.00
4795;DHT22;2411;47.060;15.064;2023-12-07T09:15:50;2.60;1.00
4795;DHT22;2411;47.060;15.064;2023-12-07T09:18:17;2.70;1.00
4795;DHT22;2411;47.060;15.064;2023-12-07T09:20:45;2.90;1.00
4795;DHT22;2411;47.060;15.064;2023-12-07T09:23:16;2.90;1.00
4795;DHT22;2411;47.060;15.064;2023-12-07T09:25:44;2.90;1.00
4795;DHT22;2411;47.060;15.064;2023-12-07T09:28:11;2.90;1.00
4795;DHT22;2411;47.060;15.064;2023-12-07T09:30:39;2.90;1.00
4795;DHT22;2411;47.060;15.064;2023-12-07T09:33:06;3.00;1.00
4795;DHT22;2411;47.060;15.064;2023-12-07T09:35:34;3.10;1.00
4795;DHT22;2411;47.060;15.064;2023-12-07T09:38:01;3.10;1.00
4795;DHT22;2411;47.060;15.064;2023-12-07T09:40:30;3.10;1.00
4795;DHT22;2411;47.060;15.064;2023-12-07T09:42:58;3.10;1.00
4795;DHT22;2411;47.060;15.064;2023-12-07T09:45:25;3.20;1.00
4795;DHT22;2411;47.060;15.064;2023-12-07T09:47:55;3.20;1.00
4795;DHT22;2411;47.060;15.064;2023-12-07T09:50:26;3.20;1.00
4795;DHT22;2411;47.060;15.064;2023-12-07T09:52:57;3.30;1.00
4795;DHT22;2411;47.060;15.064;2023-12-07T09:55:28;3.30;1.00
4795;DHT22;2411;47.060;15.064;2023-12-07T09:57:55;3.30;1.00
4795;DHT22;2411;47.060;15.064;2023-12-07T10:00:25;3.30;1.00
4795;DHT22;2411;47.060;15.064;2023-12-07T10:02:53;3.40;1.00
4795;DHT22;2411;47.060;15.064;2023-12-07T10:05:21;3.40;1.00
4795;DHT22;2411;47.060;15.064;2023-12-07T10:07:50;3.50;1.00
4795;DHT22;2411;47.060;15.064;2023-12-07T10:10:18;3.40;1.00
4795;DHT22;2411;47.060;15.064;2023-12-07T10:12:55;3.50;1.00
4795;DHT22;2411;47.060;15.064;2023-12-07T10:15:23;3.40;1.00
4795;DHT22;2411;47.060;15.064;2023-12-07T10:17:54;3.40;1.00
4795;DHT22;2411;47.060;15.064;2023-12-07T10:20:23;3.50;1.00
4795;DHT22;2411;47.060;15.064;2023-12-07T10:23:05;3.50;1.00
4795;DHT22;2411;47.060;15.064;2023-12-07T10:25:39;3.50;1.00
4795;DHT22;2411;47.060;15.064;2023-12-07T10:28:09;3.60;1.00
4795;DHT22;2411;47.060;15.064;2023-12-07T10:30:42;3.60;1.00
4795;DHT22;2411;47.060;15.064;2023-12-07T10:33:11;3.60;1.00
4795;DHT22;2411;47.060;15.064;2023-12-07T10:35:42;3.60;1.00
4795;DHT22;2411;47.060;15.064;2023-12-07T10:38:10;3.60;1.00
4795;DHT22;2411;47.060;15.064;2023-12-07T10:40:38;3.70;1.00
4795;DHT22;2411;47.060;15.064;2023-12-07T10:43:07;3.70;1.00
4795;DHT22;2411;47.060;15.064;2023-12-07T10:45:35;3.70;1.00
4795;DHT22;2411;47.060;15.064;2023-12-07T10:48:08;3.70;1.00
4795;DHT22;2411;47.060;15.064;2023-12-07T10:50:39;3.70;1.00
4795;DHT22;2411;47.060;15.064;2023-12-07T10:53:33;3.80;1.00
4795;DHT22;2411;47.060;15.064;2023-12-07T10:56:38;3.80;1.00
4795;DHT22;2411;47.060;15.064;2023-12-07T10:59:30;3.80;1.00
4795;DHT22;2411;47.060;15.064;2023-12-07T11:02:21;3.70;1.00
4795;DHT22;2411;47.060;15.064;2023-12-07T11:05:09;3.70;1.00
4795;DHT22;2411;47.060;15.064;2023-12-07T11:07:58;3.70;1.00
4795;DHT22;2411;47.060;15.064;2023-12-07T11:14:05;3.80;1.00
4795;DHT22;2411;47.060;15.064;2023-12-07T11:16:53;3.90;1.00
4795;DHT22;2411;47.060;15.064;2023-12-07T11:22:31;3.90;1.00
4795;DHT22;2411;47.060;15.064;2023-12-07T11:25:18;3.90;1.00
4795;DHT22;2411;47.060;15.064;2023-12-07T11:28:07;3.90;1.00
4795;DHT22;2411;47.060;15.064;2023-12-07T11:30:56;3.90;1.00
4795;DHT22;2411;47.060;15.064;2023-12-07T11:33:43;3.90;1.00
4795;DHT22;2411;47.060;15.064;2023-12-07T11:36:32;3.90;1.00
4795;DHT22;2411;47.060;15.064;2023-12-07T11:39:20;3.90;1.00
4795;DHT22;2411;47.060;15.064;2023-12-07T11:42:17;3.90;1.00
4795;DHT22;2411;47.060;15.064;2023-12-07T11:45:06;4.00;1.00
4795;DHT22;2411;47.060;15.064;2023-12-07T11:48:11;4.00;1.00
4795;DHT22;2411;47.060;15.064;2023-12-07T11:51:05;4.00;1.00
4795;DHT22;2411;47.060;15.064;2023-12-07T11:53:54;4.00;1.00
4795;DHT22;2411;47.060;15.064;2023-12-07T11:56:42;4.00;1.00
4795;DHT22;2411;47.060;15.064;2023-12-07T11:59:29;4.00;1.00
4795;DHT22;2411;47.060;15.064;2023-12-07T12:02:20;4.00;1.00
4795;DHT22;2411;47.060;15.064;2023-12-07T12:05:09;4.00;1.00
4795;DHT22;2411;47.060;15.064;2023-12-07T12:07:57;3.90;1.00
4795;DHT22;2411;47.060;15.064;2023-12-07T12:10:45;3.90;1.00
4795;DHT22;2411;47.060;15.064;2023-12-07T12:13:36;4.00;1.00
4795;DHT22;2411;47.060;15.064;2023-12-07T12:16:24;4.00;1.00
4795;DHT22;2411;47.060;15.064;2023-12-07T12:19:12;3.90;1.00
4795;DHT22;2411;47.060;15.064;2023-12-07T12:22:18;3.90;1.00
4795;DHT22;2411;47.060;15.064;2023-12-07T12:25:06;3.90;1.00
4795;DHT22;2411;47.060;15.064;2023-12-07T12:27:57;3.90;1.00
4795;DHT22;2411;47.060;15.064;2023-12-07T12:30:47;3.90;1.00
4795;DHT22;2411;47.060;15.064;2023-12-07T12:33:37;3.90;1.00
4795;DHT22;2411;47.060;15.064;2023-12-07T12:36:25;3.90;1.00
4795;DHT22;2411;47.060;15.064;2023-12-07T12:39:15;3.90;1.00
4795;DHT22;2411;47.060;15.064;2023-12-07T12:42:16;3.90;1.00
4795;DHT22;2411;47.060;15.064;2023-12-07T12:45:07;4.00;1.00
4795;DHT22;2411;47.060;15.064;2023-12-07T12:47:55;4.00;1.00
4795;DHT22;2411;47.060;15.064;2023-12-07T12:50:43;4.00;1.00
4795;DHT22;2411;47.060;15.064;2023-12-07T12:53:31;4.00;1.00
4795;DHT22;2411;47.060;15.064;2023-12-07T12:56:19;3.90;1.00
4795;DHT22;2411;47.060;15.064;2023-12-07T12:59:08;4.00;1.00
4795;DHT22;2411;47.060;15.064;2023-12-07T13:01:56;4.00;1.00
4795;DHT22;2411;47.060;15.064;2023-12-07T13:04:44;4.00;1.00
4795;DHT22;2411;47.060;15.064;2023-12-07T13:07:37;4.00;1.00
4795;DHT22;2411;47.060;15.064;2023-12-07T13:10:25;4.00;1.00
4795;DHT22;2411;47.060;15.064;2023-12-07T13:13:12;4.00;1.00
4795;DHT22;2411;47.060;15.064;2023-12-07T13:16:00;4.00;1.00
4795;DHT22;2411;47.060;15.064;2023-12-07T13:18:47;4.00;1.00
4795;DHT22;2411;47.060;15.064;2023-12-07T13:21:34;4.10;1.00
4795;DHT22;2411;47.060;15.064;2023-12-07T13:24:22;4.00;1.00
4795;DHT22;2411;47.060;15.064;2023-12-07T13:27:09;4.00;1.00
4795;DHT22;2411;47.060;15.064;2023-12-07T13:29:56;4.00;1.00
4795;DHT22;2411;47.060;15.064;2023-12-07T13:32:44;4.10;1.00
4795;DHT22;2411;47.060;15.064;2023-12-07T13:35:31;4.10;1.00
4795;DHT22;2411;47.060;15.064;2023-12-07T13:37:59;4.10;1.00
4795;DHT22;2411;47.060;15.064;2023-12-07T13:40:30;4.00;1.00
4795;DHT22;2411;47.060;15.064;2023-12-07T13:42:57;4.00;1.00
4795;DHT22;2411;47.060;15.064;2023-12-07T13:45:24;4.00;1.00
4795;DHT22;2411;47.060;15.064;2023-12-07T13:47:52;3.90;1.00
4795;DHT22;2411;47.060;15.064;2023-12-07T13:50:19;3.90;1.00
4795;DHT22;2411;47.060;15.064;2023-12-07T13:52:46;3.80;1.00
4795;DHT22;2411;47.060;15.064;2023-12-07T13:55:14;3.70;1.00
4795;DHT22;2411;47.060;15.064;2023-12-07T13:57:41;3.50;1.00
4795;DHT22;2411;47.060;15.064;2023-12-07T14:00:09;3.30;1.00
4795;DHT22;2411;47.060;15.064;2023-12-07T14:02:40;3.30;1.00
4795;DHT22;2411;47.060;15.064;2023-12-07T14:05:08;3.20;1.00
4795;DHT22;2411;47.060;15.064;2023-12-07T14:07:36;3.20;1.00
4795;DHT22;2411;47.060;15.064;2023-12-07T14:10:03;3.20;1.00
4795;DHT22;2411;47.060;15.064;2023-12-07T14:12:31;3.20;1.00
4795;DHT22;2411;47.060;15.064;2023-12-07T14:15:00;3.10;1.00
4795;DHT22;2411;47.060;15.064;2023-12-07T14:17:28;3.00;1.00
4795;DHT22;2411;47.060;15.064;2023-12-07T14:20:10;2.90;1.00
4795;DHT22;2411;47.060;15.064;2023-12-07T14:22:58;2.70;1.00
4795;DHT22;2411;47.060;15.064;2023-12-07T14:25:31;2.60;1.00
4795;DHT22;2411;47.060;15.064;2023-12-07T14:27:59;2.50;1.00
4795;DHT22;2411;47.060;15.064;2023-12-07T14:30:26;2.30;1.00
4795;DHT22;2411;47.060;15.064;2023-12-07T14:32:53;2.10;1.00
4795;DHT22;2411;47.060;15.064;2023-12-07T14:35:21;1.90;1.00
4795;DHT22;2411;47.060;15.064;2023-12-07T14:37:49;1.80;1.00
4795;DHT22;2411;47.060;15.064;2023-12-07T14:40:17;1.70;1.00
4795;DHT22;2411;47.060;15.064;2023-12-07T14:42:45;1.60;1.00
4795;DHT22;2411;47.060;15.064;2023-12-07T14:45:13;1.40;1.00
4795;DHT22;2411;47.060;15.064;2023-12-07T14:47:42;1.50;1.00
4795;DHT22;2411;47.060;15.064;2023-12-07T14:50:10;1.60;1.00
4795;DHT22;2411;47.060;15.064;2023-12-07T14:52:38;1.50;1.00
4795;DHT22;2411;47.060;15.064;2023-12-07T14:55:06;1.60;1.00
4795;DHT22;2411;47.060;15.064;2023-12-07T14:57:33;1.60;1.00
4795;DHT22;2411;47.060;15.064;2023-12-07T15:00:02;1.40;1.00
4795;DHT22;2411;47.060;15.064;2023-12-07T15:02:31;1.30;1.00
4795;DHT22;2411;47.060;15.064;2023-12-07T15:04:59;1.00;1.00
4795;DHT22;2411;47.060;15.064;2023-12-07T15:07:26;0.90;1.00
4795;DHT22;2411;47.060;15.064;2023-12-07T15:09:55;0.70;1.00
4795;DHT22;2411;47.060;15.064;2023-12-07T15:12:22;0.60;1.00
4795;DHT22;2411;47.060;15.064;2023-12-07T15:14:55;0.60;1.00
4795;DHT22;2411;47.060;15.064;2023-12-07T15:17:22;0.60;1.00
4795;DHT22;2411;47.060;15.064;2023-12-07T15:19:50;0.60;1.00
4795;DHT22;2411;47.060;15.064;2023-12-07T15:22:17;0.60;1.00
4795;DHT22;2411;47.060;15.064;2023-12-07T15:24:45;0.50;1.00
4795;DHT22;2411;47.060;15.064;2023-12-07T15:27:12;0.30;1.00
4795;DHT22;2411;47.060;15.064;2023-12-07T15:29:40;0.30;1.00
4795;DHT22;2411;47.060;15.064;2023-12-07T15:32:08;0.30;1.00
4795;DHT22;2411;47.060;15.064;2023-12-07T15:34:36;0.20;1.00
4795;DHT22;2411;47.060;15.064;2023-12-07T15:37:08;0.10;1.00
4795;DHT22;2411;47.060;15.064;2023-12-07T15:39:40;0.00;1.00
4795;DHT22;2411;47.060;15.064;2023-12-07T15:42:09;0.00;1.00
4795;DHT22;2411;47.060;15.064;2023-12-07T15:44:37;0.00;1.00
4795;DHT22;2411;47.060;15.064;2023-12-07T15:47:05;-0.20;1.00
4795;DHT22;2411;47.060;15.064;2023-12-07T15:49:33;-0.20;1.00
4795;DHT22;2411;47.060;15.064;2023-12-07T15:52:01;-0.20;1.00
4795;DHT22;2411;47.060;15.064;2023-12-07T15:54:29;-0.20;1.00
4795;DHT22;2411;47.060;15.064;2023-12-07T15:57:06;-0.30;1.00
4795;DHT22;2411;47.060;15.064;2023-12-07T15:59:34;-0.40;1.00
4795;DHT22;2411;47.060;15.064;2023-12-07T16:02:03;-0.50;1.00
4795;DHT22;2411;47.060;15.064;2023-12-07T16:04:31;-0.50;1.00
4795;DHT22;2411;47.060;15.064;2023-12-07T16:07:04;-0.70;1.00
4795;DHT22;2411;47.060;15.064;2023-12-07T16:09:36;-0.70;1.00
4795;DHT22;2411;47.060;15.064;2023-12-07T16:12:05;-0.70;1.00
4795;DHT22;2411;47.060;15.064;2023-12-07T16:14:34;-0.70;1.00
4795;DHT22;2411;47.060;15.064;2023-12-07T16:17:02;-0.70;1.00
4795;DHT22;2411;47.060;15.064;2023-12-07T16:19:30;-0.80;1.00
4795;DHT22;2411;47.060;15.064;2023-12-07T16:21:58;-0.80;1.00
4795;DHT22;2411;47.060;15.064;2023-12-07T16:24:25;-0.70;1.00
4795;DHT22;2411;47.060;15.064;2023-12-07T16:26:53;-0.70;1.00
4795;DHT22;2411;47.060;15.064;2023-12-07T16:29:20;-0.60;1.00
4795;DHT22;2411;47.060;15.064;2023-12-07T16:31:51;-0.70;1.00
4795;DHT22;2411;47.060;15.064;2023-12-07T16:34:18;-0.70;1.00
4795;DHT22;2411;47.060;15.064;2023-12-07T16:36:46;-0.70;1.00
4795;DHT22;2411;47.060;15.064;2023-12-07T16:39:14;-0.90;1.00